createdAt,value
2019-03-05T00:01:30.941Z,99798.49
2019-03-05T00:04:00.163Z,99816.36
2019-03-05T00:06:29.419Z,99835.94
2019-03-05T00:08:58.770Z,99819.67
2019-03-05T00:11:28.001Z,99835.47
2019-03-05T00:13:57.242Z,99834.48
2019-03-05T00:16:26.459Z,99831.38
2019-03-05T00:18:55.753Z,99825.04
2019-03-05T00:21:25.033Z,99831.05
2019-03-05T00:23:56.807Z,99827.03
2019-03-05T00:26:32.142Z,99831.56
2019-03-05T00:29:51.535Z,99830.02
2019-03-05T00:32:20.836Z,99837.41
2019-03-05T00:35:17.677Z,99844.95
2019-03-05T00:38:16.338Z,99841.66
2019-03-05T00:41:23.201Z,99863.86
2019-03-05T00:44:03.998Z,99865.76
2019-03-05T00:46:56.139Z,99853.45
2019-03-05T00:49:50.959Z,99858.09
2019-03-05T00:52:55.464Z,99852.48
2019-03-05T00:56:06.499Z,99853.81
2019-03-05T00:58:59.267Z,99856.96
2019-03-05T01:01:49.711Z,99853.48
2019-03-05T01:04:51.721Z,99864.27
2019-03-05T01:07:21.071Z,99867.25
2019-03-05T01:09:52.873Z,99874.82
2019-03-05T01:12:20.183Z,99888.15
2019-03-05T01:14:49.428Z,99878.40
2019-03-05T01:17:18.611Z,99874.79
2019-03-05T01:19:47.869Z,99877.17
2019-03-05T01:22:17.061Z,99911.94
2019-03-05T01:24:46.299Z,99881.26
2019-03-05T01:27:15.581Z,99889.25
2019-03-05T01:29:44.789Z,99890.67
2019-03-05T01:32:22.425Z,99894.86
2019-03-05T01:34:58.057Z,99890.63
2019-03-05T01:37:27.295Z,99893.66
2019-03-05T01:40:24.701Z,99889.46
2019-03-05T01:42:53.880Z,99894.75
2019-03-05T01:45:23.092Z,99892.38
2019-03-05T01:47:52.377Z,99886.02
2019-03-05T01:50:21.561Z,99914.80
2019-03-05T01:52:50.774Z,99896.17
2019-03-05T01:55:19.957Z,99891.63
2019-03-05T01:57:49.173Z,99895.70
2019-03-05T02:00:18.403Z,99899.11
2019-03-05T02:02:47.643Z,99892.80
2019-03-05T02:05:16.924Z,99885.98
2019-03-05T02:07:46.111Z,99887.47
2019-03-05T02:10:19.675Z,99891.17
2019-03-05T02:12:48.877Z,99895.07
2019-03-05T02:15:18.127Z,99890.95
2019-03-05T02:17:47.377Z,99908.91
2019-03-05T02:20:22.044Z,99891.38
2019-03-05T02:23:30.465Z,99897.27
2019-03-05T02:26:24.560Z,99902.03
2019-03-05T02:29:28.887Z,99887.68
2019-03-05T02:32:40.191Z,99882.91
2019-03-05T02:35:14.985Z,99883.77
2019-03-05T02:38:23.059Z,99897.14
2019-03-05T02:41:25.604Z,99898.81
2019-03-05T02:44:17.125Z,99913.12
2019-03-05T02:47:26.597Z,99916.48
2019-03-05T02:50:38.996Z,99899.64
2019-03-05T02:54:02.238Z,99899.92
2019-03-05T02:57:16.189Z,99886.00
2019-03-05T02:59:45.379Z,99880.85
2019-03-05T03:02:32.451Z,99895.89
2019-03-05T03:05:14.282Z,99895.47
2019-03-05T03:07:43.470Z,99896.52
2019-03-05T03:10:20.727Z,99898.61
2019-03-05T03:12:50.037Z,99888.86
2019-03-05T03:15:19.735Z,99908.69
2019-03-05T03:17:49.613Z,99907.19
2019-03-05T03:20:19.875Z,99911.71
2019-03-05T03:22:49.097Z,99918.63
2019-03-05T03:25:22.039Z,99910.36
2019-03-05T03:27:51.205Z,99914.08
2019-03-05T03:30:24.869Z,99898.30
2019-03-05T03:32:54.082Z,99920.19
2019-03-05T03:35:23.252Z,99920.53
2019-03-05T03:37:52.461Z,99946.52
2019-03-05T03:40:22.677Z,99935.39
2019-03-05T03:42:52.484Z,99926.03
2019-03-05T03:45:23.299Z,99940.34
2019-03-05T03:47:52.484Z,99932.37
2019-03-05T03:50:21.736Z,99927.03
2019-03-05T03:52:51.004Z,99920.30
2019-03-05T03:55:20.203Z,99938.72
2019-03-05T03:57:49.398Z,99941.23
2019-03-05T04:00:23.019Z,99950.91
2019-03-05T04:02:52.782Z,99946.50
2019-03-05T04:05:22.025Z,99948.27
2019-03-05T04:07:51.245Z,99950.20
2019-03-05T04:10:20.461Z,99951.98
2019-03-05T04:12:49.675Z,99974.38
2019-03-05T04:15:20.143Z,99955.47
2019-03-05T04:17:49.336Z,99956.73
2019-03-05T04:20:24.834Z,99954.27
2019-03-05T04:22:54.054Z,99962.78
2019-03-05T04:25:23.318Z,99957.94
2019-03-05T04:27:52.524Z,99963.66
2019-03-05T04:30:21.739Z,99957.28
2019-03-05T04:32:50.985Z,99967.30
2019-03-05T04:35:20.286Z,99985.14
2019-03-05T04:37:49.505Z,99967.03
2019-03-05T04:40:18.764Z,99970.98
2019-03-05T04:42:48.004Z,99973.11
2019-03-05T04:45:52.131Z,99974.85
2019-03-05T04:48:21.418Z,99964.41
2019-03-05T04:51:06.199Z,99978.41
2019-03-05T04:53:35.431Z,99978.98
2019-03-05T04:56:04.664Z,99989.90
2019-03-05T04:58:33.893Z,99977.71
2019-03-05T05:01:03.249Z,99977.67
2019-03-05T05:03:32.512Z,99974.42
2019-03-05T05:06:01.663Z,99989.67
2019-03-05T05:08:30.909Z,99983.56
2019-03-05T05:11:00.107Z,99993.73
2019-03-05T05:13:29.357Z,99991.91
2019-03-05T05:15:58.557Z,100007.13
2019-03-05T05:18:27.785Z,99983.56
2019-03-05T05:20:56.993Z,99985.84
2019-03-05T05:23:26.221Z,99991.52
2019-03-05T05:25:55.445Z,99994.77
2019-03-05T05:28:24.669Z,99996.13
2019-03-05T05:30:53.866Z,100000.53
2019-03-05T05:33:23.080Z,100010.83
2019-03-05T05:35:52.275Z,99996.86
2019-03-05T05:38:21.483Z,100009.59
2019-03-05T05:40:50.725Z,100011.20
2019-03-05T05:43:26.906Z,100015.30
2019-03-05T05:45:56.112Z,100011.86
2019-03-05T05:48:25.341Z,100030.37
2019-03-05T05:50:54.545Z,100030.48
2019-03-05T05:53:23.763Z,100024.91
2019-03-05T05:55:52.967Z,100044.37
2019-03-05T05:58:22.203Z,100049.09
2019-03-05T06:00:53.553Z,100045.58
2019-03-05T06:03:22.783Z,100094.48
2019-03-05T06:05:52.007Z,100050.30
2019-03-05T06:08:21.185Z,100062.72
2019-03-05T06:10:52.768Z,100075.58
2019-03-05T06:13:19.693Z,100071.20
2019-03-05T06:15:48.905Z,100076.78
2019-03-05T06:18:18.114Z,100087.89
2019-03-05T06:20:47.399Z,100082.64
2019-03-05T06:23:16.742Z,100073.14
2019-03-05T06:25:46.009Z,100081.25
2019-03-05T06:28:15.201Z,100080.50
2019-03-05T06:30:44.620Z,100082.38
2019-03-05T06:33:14.038Z,100097.29
2019-03-05T06:35:43.258Z,100088.16
2019-03-05T06:38:12.497Z,100093.09
2019-03-05T06:40:41.711Z,100090.46
2019-03-05T06:43:10.916Z,100091.08
2019-03-05T06:45:40.263Z,100096.30
2019-03-05T06:48:09.663Z,100102.34
2019-03-05T06:50:38.975Z,100121.01
2019-03-05T06:53:08.182Z,100112.73
2019-03-05T06:55:37.397Z,100118.52
2019-03-05T06:58:06.784Z,100113.16
2019-03-05T07:00:37.331Z,100124.30
2019-03-05T07:03:07.658Z,100139.93
2019-03-05T07:06:13.692Z,100127.73
2019-03-05T07:08:47.364Z,100126.39
2019-03-05T07:11:45.335Z,100123.70
2019-03-05T07:14:19.775Z,100130.73
2019-03-05T07:17:13.998Z,100122.50
2019-03-05T07:20:05.685Z,100138.18
2019-03-05T07:22:50.477Z,100141.98
2019-03-05T07:25:19.797Z,100148.20
2019-03-05T07:27:55.705Z,100131.61
2019-03-05T07:30:26.469Z,100138.47
2019-03-05T07:32:57.096Z,100139.78
2019-03-05T07:35:27.542Z,100151.84
2019-03-05T07:37:56.830Z,100153.52
2019-03-05T07:40:26.104Z,100150.75
2019-03-05T07:42:55.369Z,100145.81
2019-03-05T07:45:24.611Z,100147.48
2019-03-05T07:47:53.947Z,100145.50
2019-03-05T07:50:23.247Z,100151.08
2019-03-05T07:52:52.503Z,100154.98
2019-03-05T07:55:21.781Z,100142.94
2019-03-05T07:57:51.134Z,100165.94
2019-03-05T08:00:24.294Z,100176.57
2019-03-05T08:02:50.806Z,100181.53
2019-03-05T08:05:20.045Z,100181.28
2019-03-05T08:07:49.434Z,100167.69
2019-03-05T08:10:24.395Z,100187.80
2019-03-05T08:13:04.318Z,100185.66
2019-03-05T08:16:02.539Z,100185.27
2019-03-05T08:18:23.960Z,100177.52
2019-03-05T08:20:53.215Z,100182.33
2019-03-05T08:23:22.460Z,100199.34
2019-03-05T08:25:51.743Z,100179.00
2019-03-05T08:28:21.050Z,100203.77
2019-03-05T08:30:50.311Z,100216.63
2019-03-05T08:33:19.648Z,100191.83
2019-03-05T08:35:48.936Z,100217.52
2019-03-05T08:38:18.249Z,100222.92
2019-03-05T08:40:47.511Z,100221.61
2019-03-05T08:43:16.833Z,100218.73
2019-03-05T08:45:46.129Z,100243.98
2019-03-05T08:48:15.387Z,100224.02
2019-03-05T08:50:44.755Z,100232.20
2019-03-05T08:53:13.991Z,100262.40
2019-03-05T08:55:43.250Z,100216.63
2019-03-05T08:58:12.491Z,100249.98
2019-03-05T09:00:41.763Z,100248.55
2019-03-05T09:03:11.009Z,100267.63
2019-03-05T09:05:40.219Z,100263.34
2019-03-05T09:08:09.563Z,100257.55
2019-03-05T09:10:38.835Z,100254.89
2019-03-05T09:13:08.701Z,100258.26
2019-03-05T09:15:38.076Z,100261.78
2019-03-05T09:18:07.351Z,100256.16
2019-03-05T09:20:36.665Z,100269.03
2019-03-05T09:23:05.962Z,100259.27
2019-03-05T09:25:35.227Z,100277.61
2019-03-05T09:28:04.449Z,100271.59
2019-03-05T09:30:33.671Z,100267.45
2019-03-05T09:33:02.978Z,100280.08
2019-03-05T09:35:32.280Z,100294.01
2019-03-05T09:38:01.547Z,100276.00
2019-03-05T09:40:30.993Z,100275.73
2019-03-05T09:43:00.267Z,100270.39
2019-03-05T09:45:29.539Z,100289.13
2019-03-05T09:47:58.710Z,100290.17
2019-03-05T09:50:28.068Z,100297.53
2019-03-05T09:52:57.338Z,100292.86
2019-03-05T09:55:26.854Z,100285.78
2019-03-05T09:58:06.956Z,100292.73
2019-03-05T10:00:25.627Z,100284.72
2019-03-05T10:02:54.856Z,100292.84
2019-03-05T10:05:24.195Z,100289.00
2019-03-05T10:07:53.394Z,100299.32
2019-03-05T10:10:23.768Z,100297.15
2019-03-05T10:12:53.111Z,100303.52
2019-03-05T10:15:22.403Z,100322.28
2019-03-05T10:17:51.611Z,100308.02
2019-03-05T10:20:21.633Z,100315.48
2019-03-05T10:22:54.101Z,100316.88
2019-03-05T10:25:23.413Z,100307.19
2019-03-05T10:27:52.678Z,100320.75
2019-03-05T10:30:24.967Z,100318.02
2019-03-05T10:32:53.155Z,100329.86
2019-03-05T10:35:24.101Z,100331.07
2019-03-05T10:37:54.006Z,100324.04
2019-03-05T10:40:26.759Z,100325.22
2019-03-05T10:42:56.039Z,100318.20
2019-03-05T10:45:25.286Z,100321.93
2019-03-05T10:47:54.518Z,100318.33
2019-03-05T10:50:24.890Z,100322.75
2019-03-05T10:52:54.155Z,100335.43
2019-03-05T10:55:26.567Z,100335.47
2019-03-05T10:57:52.617Z,100327.29
2019-03-05T11:00:24.199Z,100329.73
2019-03-05T11:02:53.469Z,100332.69
2019-03-05T11:05:22.748Z,100327.06
2019-03-05T11:07:52.078Z,100339.22
2019-03-05T11:10:21.317Z,100337.33
2019-03-05T11:12:50.546Z,100331.99
2019-03-05T11:15:22.453Z,100308.19
2019-03-05T11:17:51.718Z,100324.48
2019-03-05T11:20:20.997Z,100355.84
2019-03-05T11:22:50.305Z,100341.36
2019-03-05T11:25:19.537Z,100368.63
2019-03-05T11:27:48.791Z,100347.14
2019-03-05T11:30:22.911Z,100343.14
2019-03-05T11:32:52.175Z,100342.00
2019-03-05T11:35:23.306Z,100333.28
2019-03-05T11:37:52.538Z,100333.28
2019-03-05T11:40:21.783Z,100357.59
2019-03-05T11:42:51.063Z,100325.93
2019-03-05T11:45:22.432Z,100359.53
2019-03-05T11:47:51.654Z,100359.53
2019-03-05T11:50:20.930Z,100373.16
2019-03-05T11:52:50.227Z,100399.79
2019-03-05T11:55:20.139Z,100379.11
2019-03-05T11:57:49.411Z,100390.35
2019-03-05T12:00:24.549Z,100398.59
2019-03-05T12:02:53.768Z,100409.59
2019-03-05T12:05:23.055Z,100397.38
2019-03-05T12:07:52.365Z,100418.17
2019-03-05T12:10:21.696Z,100399.36
2019-03-05T12:12:50.960Z,100410.89
2019-03-05T12:15:20.319Z,100410.38
2019-03-05T12:17:49.704Z,100408.05
2019-03-05T12:20:18.951Z,100391.34
2019-03-05T12:22:48.194Z,100391.34
2019-03-05T12:25:17.518Z,100400.55
2019-03-05T12:27:46.743Z,100396.86
2019-03-05T12:30:18.758Z,100404.35
2019-03-05T12:32:48.008Z,100429.25
2019-03-05T12:35:17.365Z,100401.45
2019-03-05T12:37:46.641Z,100412.08
2019-03-05T12:40:16.268Z,100412.59
2019-03-05T12:42:45.463Z,100412.29
2019-03-05T12:45:14.751Z,100418.44
2019-03-05T12:47:44.070Z,100429.80
2019-03-05T12:50:15.678Z,100446.27
2019-03-05T12:52:45.448Z,100433.52
2019-03-05T12:55:14.715Z,100428.95
2019-03-05T12:57:44.052Z,100432.39
2019-03-05T13:00:16.167Z,100412.31
2019-03-05T13:02:45.498Z,100412.31
2019-03-05T13:05:15.517Z,100428.69
2019-03-05T13:07:45.007Z,100428.86
2019-03-05T13:10:16.863Z,100427.19
2019-03-05T13:12:46.102Z,100427.19
2019-03-05T13:15:17.625Z,100446.75
2019-03-05T13:17:47.126Z,100424.20
2019-03-05T13:20:16.447Z,100424.20
2019-03-05T13:22:45.635Z,100451.25
2019-03-05T13:25:15.973Z,100442.65
2019-03-05T13:27:45.197Z,100447.16
2019-03-05T13:30:16.277Z,100447.16
2019-03-05T13:32:45.496Z,100454.52
2019-03-05T13:35:15.541Z,100459.33
2019-03-05T13:37:45.323Z,100446.80
2019-03-05T13:40:17.198Z,100456.89
2019-03-05T13:42:46.485Z,100362.78
2019-03-05T13:45:15.713Z,100477.39
2019-03-05T13:47:54.613Z,100473.41
2019-03-05T13:50:35.920Z,100445.06
2019-03-05T13:54:00.003Z,100474.62
2019-03-05T13:57:00.201Z,100459.25
2019-03-05T13:59:46.424Z,100484.45
2019-03-05T14:02:22.074Z,100484.45
2019-03-05T14:05:13.985Z,100480.52
2019-03-05T14:08:24.905Z,100484.81
2019-03-05T14:10:54.101Z,100475.51
2019-03-05T14:13:23.703Z,100500.50
2019-03-05T14:15:52.673Z,100501.08
2019-03-05T14:18:21.911Z,100502.76
2019-03-05T14:20:51.274Z,100495.77
2019-03-05T14:23:20.508Z,100500.37
2019-03-05T14:25:49.744Z,100518.81
2019-03-05T14:28:19.739Z,100513.70
2019-03-05T14:30:48.264Z,100513.56
2019-03-05T14:33:17.492Z,100514.77
2019-03-05T14:35:47.640Z,100514.77
2019-03-05T14:38:16.962Z,100522.08
2019-03-05T14:40:46.229Z,100554.41
2019-03-05T14:43:15.480Z,100519.34
2019-03-05T14:45:44.697Z,100519.34
2019-03-05T14:48:13.966Z,100537.00
2019-03-05T14:50:43.221Z,100527.55
2019-03-05T14:53:12.507Z,100522.55
2019-03-05T14:55:41.833Z,100533.39
2019-03-05T14:58:11.037Z,100537.47
2019-03-05T15:00:40.423Z,100534.56
2019-03-05T15:03:09.639Z,100545.69
2019-03-05T15:05:38.865Z,100541.72
2019-03-05T15:08:08.119Z,100558.50
2019-03-05T15:10:37.277Z,100558.39
2019-03-05T15:13:15.329Z,100553.23
2019-03-05T15:15:35.846Z,100558.04
2019-03-05T15:18:05.123Z,100561.03
2019-03-05T15:20:34.432Z,100560.03
2019-03-05T15:23:03.764Z,100577.91
2019-03-05T15:25:33.011Z,100572.11
2019-03-05T15:28:02.339Z,100567.34
2019-03-05T15:30:31.620Z,100570.98
2019-03-05T15:33:00.876Z,100567.87
2019-03-05T15:35:30.190Z,100576.82
2019-03-05T15:37:59.391Z,100666.19
2019-03-05T15:40:28.659Z,100575.75
2019-03-05T15:42:57.995Z,100586.94
2019-03-05T15:45:27.196Z,100586.94
2019-03-05T15:47:56.426Z,100597.41
2019-03-05T15:50:25.995Z,100593.55
2019-03-05T15:52:55.115Z,100600.77
2019-03-05T15:55:24.416Z,100604.50
2019-03-05T15:57:53.700Z,100609.87
2019-03-05T16:00:26.524Z,100604.58
2019-03-05T16:02:55.734Z,100603.17
2019-03-05T16:05:24.985Z,100607.37
2019-03-05T16:07:54.254Z,100608.58
2019-03-05T16:10:23.474Z,100615.99
2019-03-05T16:12:52.787Z,100611.22
2019-03-05T16:15:22.041Z,100617.08
2019-03-05T16:17:51.291Z,100622.64
2019-03-05T16:20:20.563Z,100612.02
2019-03-05T16:22:51.213Z,100612.81
2019-03-05T16:25:19.105Z,100620.42
2019-03-05T16:27:48.385Z,100623.45
2019-03-05T16:30:37.502Z,100624.14
2019-03-05T16:33:38.510Z,100617.80
2019-03-05T16:36:30.567Z,100633.27
2019-03-05T16:39:27.289Z,100643.83
2019-03-05T16:42:09.022Z,100636.48
2019-03-05T16:44:55.821Z,100646.22
2019-03-05T16:47:47.457Z,100647.28
2019-03-05T16:50:45.142Z,100644.82
2019-03-05T16:53:36.121Z,100655.12
2019-03-05T16:56:22.987Z,100662.34
2019-03-05T16:59:12.073Z,100690.19
2019-03-05T17:02:02.307Z,100674.32
2019-03-05T17:05:03.032Z,100689.69
2019-03-05T17:07:43.397Z,100687.81
2019-03-05T17:10:46.703Z,100704.07
2019-03-05T17:13:15.943Z,100703.80
2019-03-05T17:15:45.258Z,100719.13
2019-03-05T17:18:14.498Z,100714.52
2019-03-05T17:20:43.897Z,100717.95
2019-03-05T17:23:13.148Z,100725.06
2019-03-05T17:25:42.426Z,100727.06
2019-03-05T17:28:11.644Z,100731.14
2019-03-05T17:30:41.046Z,100744.45
2019-03-05T17:33:10.367Z,100744.55
2019-03-05T17:35:39.608Z,100741.70
2019-03-05T17:38:08.855Z,100741.45
2019-03-05T17:40:38.164Z,100747.66
2019-03-05T17:43:07.493Z,100751.31
2019-03-05T17:45:36.913Z,100756.13
2019-03-05T17:48:06.228Z,100759.45
2019-03-05T17:50:35.459Z,100762.17
2019-03-05T17:53:04.882Z,100766.33
2019-03-05T17:55:34.125Z,100776.64
2019-03-05T17:58:03.363Z,100774.20
2019-03-05T18:00:34.416Z,100784.27
2019-03-05T18:03:03.731Z,100787.83
2019-03-05T18:05:33.022Z,100792.31
2019-03-05T18:08:02.270Z,100788.85
2019-03-05T18:10:31.616Z,100800.95
2019-03-05T18:13:00.897Z,100811.11
2019-03-05T18:15:30.145Z,100811.98
2019-03-05T18:17:59.410Z,100812.44
2019-03-05T18:20:28.744Z,100810.21
2019-03-05T18:22:58.746Z,100812.98
2019-03-05T18:25:28.033Z,100823.61
2019-03-05T18:27:57.352Z,100840.79
2019-03-05T18:30:26.574Z,100837.39
2019-03-05T18:32:55.835Z,100836.58
2019-03-05T18:35:25.366Z,100837.09
2019-03-05T18:37:54.666Z,100844.68
2019-03-05T18:40:24.245Z,100843.45
2019-03-05T18:42:53.628Z,100846.66
2019-03-05T18:45:24.084Z,100843.68
2019-03-05T18:47:53.437Z,100852.91
2019-03-05T18:50:23.043Z,100856.14
2019-03-05T18:52:52.285Z,100855.77
2019-03-05T18:55:21.727Z,100859.41
2019-03-05T18:57:50.999Z,100863.97
2019-03-05T19:00:21.848Z,100859.72
2019-03-05T19:02:52.781Z,100865.94
2019-03-05T19:05:22.196Z,100877.30
2019-03-05T19:07:51.468Z,100870.86
2019-03-05T19:10:21.202Z,100873.56
2019-03-05T19:12:50.477Z,100866.61
2019-03-05T19:15:20.525Z,100875.42
2019-03-05T19:17:49.756Z,100880.28
2019-03-05T19:20:20.980Z,100881.20
2019-03-05T19:22:50.359Z,100881.28
2019-03-05T19:25:21.920Z,100884.02
2019-03-05T19:27:51.220Z,100882.79
2019-03-05T19:30:22.726Z,100882.00
2019-03-05T19:32:51.968Z,100893.05
2019-03-05T19:35:21.215Z,100890.06
2019-03-05T19:37:50.490Z,100893.63
2019-03-05T19:40:21.998Z,100898.08
2019-03-05T19:42:51.228Z,100900.77
2019-03-05T19:45:23.611Z,100907.39
2019-03-05T19:47:52.845Z,100902.60
2019-03-05T19:50:22.094Z,100907.01
2019-03-05T19:52:51.351Z,100901.34
2019-03-05T19:55:23.648Z,100911.01
2019-03-05T19:57:52.902Z,100907.13
2019-03-05T20:00:34.860Z,100917.69
2019-03-05T20:03:04.120Z,100911.17
2019-03-05T20:05:33.344Z,100913.81
2019-03-05T20:08:02.596Z,100913.83
2019-03-05T20:10:31.829Z,100912.14
2019-03-05T20:13:01.030Z,100917.41
2019-03-05T20:15:30.336Z,100921.45
2019-03-05T20:17:59.560Z,100922.27
2019-03-05T20:20:28.769Z,100914.45
2019-03-05T20:22:58.061Z,100919.23
2019-03-05T20:25:27.456Z,100920.09
2019-03-05T20:27:56.805Z,100930.55
2019-03-05T20:30:26.049Z,100930.16
2019-03-05T20:32:55.322Z,100941.16
2019-03-05T20:35:24.574Z,100939.90
2019-03-05T20:37:53.860Z,100938.20
2019-03-05T20:40:23.099Z,100939.97
2019-03-05T20:42:52.414Z,100936.94
2019-03-05T20:45:24.889Z,100947.03
2019-03-05T20:47:54.235Z,100958.86
2019-03-05T20:50:23.479Z,100971.17
2019-03-05T20:52:52.724Z,100974.25
2019-03-05T20:55:22.340Z,100968.50
2019-03-05T20:57:51.636Z,100969.01
2019-03-05T21:00:25.287Z,100973.40
2019-03-05T21:02:56.220Z,100975.20
2019-03-05T21:05:27.329Z,100980.01
2019-03-05T21:07:56.636Z,100981.73
2019-03-05T21:10:25.924Z,100977.39
2019-03-05T21:12:55.254Z,100974.35
2019-03-05T21:15:24.522Z,100976.08
2019-03-05T21:17:54.020Z,100979.61
2019-03-05T21:20:23.246Z,100981.79
2019-03-05T21:22:52.530Z,100979.61
2019-03-05T21:25:21.752Z,100982.63
2019-03-05T21:27:50.972Z,100998.34
2019-03-05T21:30:20.448Z,100994.86
2019-03-05T21:32:49.693Z,100997.94
2019-03-05T21:35:18.963Z,101002.34
2019-03-05T21:37:48.178Z,101004.45
2019-03-05T21:40:21.930Z,101009.50
2019-03-05T21:42:51.272Z,101012.95
2019-03-05T21:45:23.791Z,101017.03
2019-03-05T21:47:53.046Z,101019.06
2019-03-05T21:50:24.842Z,101019.45
2019-03-05T21:52:54.207Z,101026.13
2019-03-05T21:55:23.428Z,101026.19
2019-03-05T21:57:52.674Z,101018.84
2019-03-05T22:00:24.033Z,101019.35
2019-03-05T22:02:53.428Z,101024.20
2019-03-05T22:05:22.762Z,101029.05
2019-03-05T22:07:51.980Z,101029.50
2019-03-05T22:10:21.233Z,101036.55
2019-03-05T22:12:50.487Z,101029.99
2019-03-05T22:15:20.019Z,101026.06
2019-03-05T22:17:49.631Z,101032.20
2019-03-05T22:20:18.904Z,101036.60
2019-03-05T22:22:48.193Z,101034.39
2019-03-05T22:25:18.359Z,101024.34
2019-03-05T22:27:47.618Z,101026.11
2019-03-05T22:30:18.782Z,101038.33
2019-03-05T22:32:47.990Z,101024.34
2019-03-05T22:35:18.035Z,101031.36
2019-03-05T22:37:47.234Z,101031.84
2019-03-05T22:40:16.592Z,101034.11
2019-03-05T22:42:45.843Z,101035.47
2019-03-05T22:45:17.192Z,101037.77
2019-03-05T22:47:46.571Z,101035.19
2019-03-05T22:50:15.934Z,101032.20
2019-03-05T22:52:45.179Z,101040.97
2019-03-05T22:55:14.403Z,101040.15
2019-03-05T22:57:43.750Z,101046.78
2019-03-05T23:00:16.946Z,101052.48
2019-03-05T23:02:46.172Z,101058.66
2019-03-05T23:05:15.539Z,101051.69
2019-03-05T23:07:44.768Z,101052.17
2019-03-05T23:10:13.991Z,101055.25
2019-03-05T23:12:43.261Z,101055.73
2019-03-05T23:15:12.516Z,101057.53
2019-03-05T23:17:41.773Z,101060.19
2019-03-05T23:20:11.038Z,101060.19
2019-03-05T23:22:40.283Z,101059.35
2019-03-05T23:25:09.528Z,101061.97
2019-03-05T23:27:38.754Z,101062.84
2019-03-05T23:30:08.306Z,101071.98
2019-03-05T23:32:37.501Z,101069.77
2019-03-05T23:35:08.005Z,101067.57
2019-03-05T23:37:37.234Z,101064.50
2019-03-05T23:40:06.642Z,101066.26
2019-03-05T23:42:35.870Z,101067.57
2019-03-05T23:45:05.486Z,101067.98
2019-03-05T23:47:34.718Z,101062.77
2019-03-05T23:50:03.980Z,101060.56
2019-03-05T23:52:33.219Z,101062.25
2019-03-05T23:55:02.418Z,101063.56
2019-03-05T23:57:31.646Z,101066.60
